Terminal Aerodrome Forecast
Issued by NWS

Home | Current Version | Previous Version | Text Only | Print | Product List | Glossary On
Versions: 1 2 3 4 5 6 7 8 9 10 11 12 13 14 15 16 17 18 19
471
FTAK31 PAJN 251127
TAFASI
TAF
PASI 251127Z 2512/2612 12004KT P6SM SCT022 BKN035
      TEMPO 2512/2516 4SM BR BKN020 OVC030
     FM251700 15006KT P6SM SCT012 OVC025
     FM260300 13007KT P6SM -RA SCT025 OVC040
     FM261000 14008KT 4SM -RA BR OVC020=

USA.gov is the U.S. government's official web portal to all federal, state and local government web resources and services.